Aérodrome :
LOGIN :

S'inscrire | Disclaimer

   EN    FR    IT 

 










Légende :    VFR   VFR Marginal   IFR   IFR Intensif   IFR Très Intensif
Visi : 
Plafond : 
>= 8 km
>= 3000ft
5 à 8 km
1000 à 3000 ft
1500m à 5 km
500 à 1000 ft
800 à 1500m
200 à 500 ft
< 800m
< 200 ft
Symboles :   Orages  Brouillard  Fortes neiges  Fortes précipitations  Vent > 20 kt
SIGMETs :   Divers  Orages  Givrage  Turbulence  Onde Orograph.  Cendres Volcan.







- Altitude de l'aérodrome : 141 ft
- Code IATA : SKS


EKSP - Srydstrup Vojens

DERNIER METAR :
  • 232350Z 07012KT 9999 SCT048 11/08 Q1006

METARs EXPIRÉS :
  • 232320Z 08014KT 9999 BKN048 11/08 Q1006
  • 232250Z 08014KT 050V110 9999 -RA BKN048 11/08 Q1007
  • 232220Z 09015KT 9999 -RA FEW019 BKN048 11/08 Q1007
  • 232150Z 08015KT 9999 -RA FEW019 BKN048 12/08 Q1008
  • 232120Z 08016KT 9999 FEW019 BKN048 12/07 Q1008

TAF TAF EKSP
Valide du 24 à 00h jusqu'au 25 à 00h UTC


232303Z 2400/2424 09015KT 9999 SCT050
TEMPO 2400/2416 11015G28KT 7000 -RA BKN040CB
Pas de NOTAMs connus pour ce terrain.



MET'MAP, la Météo Aéronautique d'un coup d'oeil ! - Copyright ORBIFLY Décembre 2007 - Disclaimer

ORBIFLY MET'MAP TEAM :

Programmation & Développement : Alexandra Zaïnal
Conception & Développement : Baudouin d'Aumeries
Co-Programmation & Développement : Marc-Olivier Méhu
Soutien technique & logistique : Manuel Goepfert

Contact : metmap@orbifly.com




SOURCES & CREDITS :

   NOAA